Time;durP1;ratioP1;P1;durP2;ratioP2;P2;SDS_P1;SDS_P2;PMS_P1;PMS_P2;Temp;Humidity;BMP_temperature;BMP_pressure;BME280_temperature;BME280_humidity;BME280_pressure;Samples;Min_cycle;Max_cycle;Signal;HPM_P1;HPM_P2
2021/07/08 00:00:38;;;;;;;6.13;1.40;;;;;;;18.12;66.83;101627.78;5049661;28;20074;-75
2021/07/08 00:03:03;;;;;;;2.83;1.73;;;;;;;17.94;67.43;101631.84;5034327;28;20071;-75
2021/07/08 00:05:29;;;;;;;1.95;1.33;;;;;;;17.88;67.74;101632.03;5050032;28;20029;-75
2021/07/08 00:07:58;;;;;;;3.03;1.27;;;;;;;17.97;67.50;101617.69;5050465;28;20025;-75
2021/07/08 00:10:29;;;;;;;2.15;1.25;;;;;;;17.98;67.81;101614.97;5049095;28;20104;-75
2021/07/08 00:12:55;;;;;;;2.13;1.27;;;;;;;17.89;68.20;101623.19;5033408;28;20017;-75
2021/07/08 00:15:21;;;;;;;7.28;1.52;;;;;;;17.91;67.87;101626.66;5034712;28;20029;-75
2021/07/08 00:17:47;;;;;;;6.55;1.25;;;;;;;18.02;67.29;101619.25;5050414;28;20029;-75
2021/07/08 00:20:15;;;;;;;5.03;1.25;;;;;;;17.97;68.27;101630.91;5033835;28;20025;-74
2021/07/08 00:22:41;;;;;;;4.60;1.30;;;;;;;17.74;69.15;101633.34;5034220;28;20104;-74
2021/07/08 00:25:14;;;;;;;2.55;1.38;;;;;;;17.67;69.30;101631.81;5049068;28;20056;-75
2021/07/08 00:27:41;;;;;;;1.40;1.30;;;;;;;17.80;70.02;101634.06;5050224;28;20029;-73
2021/07/08 00:30:08;;;;;;;2.08;1.23;;;;;;;17.78;70.02;101630.59;5033366;28;20264;-74
2021/07/08 00:32:34;;;;;;;3.13;1.42;;;;;;;17.76;70.35;101637.72;5032945;28;20043;-74
2021/07/08 00:35:02;;;;;;;1.10;0.98;;;;;;;17.97;68.61;101631.78;5049946;28;20037;-74
2021/07/08 00:37:27;;;;;;;3.08;1.50;;;;;;;18.13;68.07;101633.91;5034249;28;20021;-74
2021/07/08 00:39:53;;;;;;;1.83;0.95;;;;;;;18.23;67.06;101625.63;5034355;28;20022;-74
2021/07/08 00:42:18;;;;;;;2.42;1.88;;;;;;;17.80;69.88;101626.13;5032959;28;20014;-74
2021/07/08 00:44:45;;;;;;;3.10;1.40;;;;;;;17.73;70.50;101631.59;5050038;28;20030;-74
2021/07/08 00:47:10;;;;;;;4.15;1.70;;;;;;;17.93;68.70;101624.88;5033510;28;20069;-74
2021/07/08 00:49:35;;;;;;;2.13;1.30;;;;;;;18.13;67.63;101626.84;5034652;28;20037;-74
2021/07/08 00:52:01;;;;;;;2.00;1.27;;;;;;;18.13;66.81;101618.91;5049198;28;20057;-74
2021/07/08 00:54:26;;;;;;;3.67;1.42;;;;;;;17.65;68.53;101615.13;5049865;28;20067;-74
2021/07/08 00:56:51;;;;;;;2.72;1.30;;;;;;;17.87;68.10;101617.09;5034281;28;20463;-74
2021/07/08 00:59:18;;;;;;;4.03;1.50;;;;;;;18.01;67.06;101620.19;5034414;28;20446;-75
2021/07/08 01:01:43;;;;;;;2.00;1.10;;;;;;;17.89;69.34;101617.91;5049121;28;20032;-75
2021/07/08 01:04:09;;;;;;;1.75;1.45;;;;;;;17.70;68.83;101626.41;5049827;28;20025;-74
2021/07/08 01:06:40;;;;;;;1.58;1.20;;;;;;;17.82;68.89;101624.28;5033231;28;20226;-74
2021/07/08 01:09:06;;;;;;;2.50;1.15;;;;;;;17.83;69.08;101631.31;5033340;28;20390;-74
2021/07/08 01:11:33;;;;;;;2.70;1.58;;;;;;;18.03;68.14;101626.28;5048926;28;20026;-74
2021/07/08 01:13:59;;;;;;;1.65;1.55;;;;;;;18.15;67.83;101632.94;5049407;28;20025;-74
2021/07/08 01:16:27;;;;;;;2.17;1.17;;;;;;;17.89;70.20;101631.13;5049287;28;20433;-74
2021/07/08 01:18:52;;;;;;;1.42;1.33;;;;;;;17.88;69.42;101627.59;5034396;28;20032;-74
2021/07/08 01:21:32;;;;;;;1.38;1.23;;;;;;;17.62;70.13;101625.78;5033260;28;20033;-74
2021/07/08 01:23:59;;;;;;;2.42;1.38;;;;;;;17.62;70.26;101628.44;5034134;28;20132;-74
2021/07/08 01:26:24;;;;;;;1.73;1.58;;;;;;;17.82;70.41;101635.75;5032968;28;20064;-74
2021/07/08 01:28:51;;;;;;;2.45;1.40;;;;;;;17.49;70.71;101632.34;5048783;28;20138;-74
2021/07/08 01:31:17;;;;;;;1.63;1.33;;;;;;;17.66;69.79;101631.84;5032417;28;20108;-74
2021/07/08 01:33:42;;;;;;;1.73;1.30;;;;;;;17.90;68.88;101628.44;5030789;28;20413;-74
2021/07/08 01:36:08;;;;;;;4.05;1.83;;;;;;;17.91;69.48;101634.56;5016938;28;20033;-74
2021/07/08 01:38:33;;;;;;;3.47;1.70;;;;;;;18.00;69.13;101623.75;5037562;28;20109;-74
2021/07/08 01:40:59;;;;;;;1.30;1.20;;;;;;;17.99;69.61;101629.94;5037349;28;20060;-74
2021/07/08 01:43:24;;;;;;;1.65;1.45;;;;;;;17.81;69.91;101625.22;5053049;28;20100;-74
2021/07/08 01:45:49;;;;;;;4.15;1.60;;;;;;;17.80;70.01;101620.84;5052678;28;20021;-74
2021/07/08 01:48:15;;;;;;;1.67;1.48;;;;;;;17.76;69.88;101621.84;5056078;28;20052;-74
2021/07/08 01:50:40;;;;;;;1.73;1.10;;;;;;;17.59;70.46;101620.59;5039959;28;20112;-75
2021/07/08 01:53:06;;;;;;;3.10;1.55;;;;;;;17.16;71.98;101620.09;5038104;28;20029;-74
2021/07/08 01:55:31;;;;;;;2.15;1.95;;;;;;;16.98;73.88;101610.94;5036627;28;20029;-74
2021/07/08 01:57:57;;;;;;;2.47;1.52;;;;;;;17.04;74.17;101615.19;5037181;28;20108;-74
2021/07/08 02:00:24;;;;;;;1.52;1.33;;;;;;;17.23;72.17;101620.78;5036163;28;20288;-74
2021/07/08 02:02:53;;;;;;;2.90;1.60;;;;;;;16.97;74.01;101616.28;5036492;28;20026;-74
2021/07/08 02:05:18;;;;;;;3.40;1.70;;;;;;;16.74;74.25;101612.47;5052713;28;20389;-74
2021/07/08 02:07:44;;;;;;;5.07;2.20;;;;;;;16.85;75.05;101615.69;5052616;28;20116;-75
2021/07/08 02:10:11;;;;;;;5.30;2.05;;;;;;;16.87;75.33;101613.84;5052601;28;20030;-74
2021/07/08 02:12:37;;;;;;;2.28;2.08;;;;;;;17.06;73.92;101622.16;5052004;28;20057;-74
2021/07/08 02:15:04;;;;;;;3.10;1.67;;;;;;;17.27;73.28;101624.22;5035878;28;20375;-75
2021/07/08 02:17:29;;;;;;;2.40;1.88;;;;;;;17.00;74.04;101618.81;5051556;28;20467;-75
2021/07/08 02:19:54;;;;;;;3.08;1.70;;;;;;;16.85;74.57;101630.63;5035285;28;20017;-74
2021/07/08 02:22:20;;;;;;;1.95;1.65;;;;;;;17.06;74.23;101624.78;5036018;28;20017;-74
2021/07/08 02:24:45;;;;;;;2.42;2.00;;;;;;;17.27;73.79;101630.34;5052325;28;20330;-74
2021/07/08 02:27:10;;;;;;;3.05;1.90;;;;;;;17.32;73.29;101619.66;5052261;28;20498;-74
2021/07/08 02:29:37;;;;;;;2.67;1.85;;;;;;;17.31;72.97;101621.44;5035520;28;20033;-74
2021/07/08 02:32:03;;;;;;;4.03;1.80;;;;;;;17.35;72.78;101611.66;5051398;28;20029;-74
2021/07/08 02:34:28;;;;;;;1.90;1.70;;;;;;;17.42;72.97;101620.25;5051942;28;20033;-74
2021/07/08 02:36:53;;;;;;;3.45;1.75;;;;;;;17.41;72.31;101624.69;5051703;28;20029;-74
2021/07/08 02:39:19;;;;;;;1.95;1.85;;;;;;;17.40;73.26;101613.22;5036513;28;20036;-75
2021/07/08 02:41:44;;;;;;;1.98;1.70;;;;;;;17.12;74.07;101612.34;5034978;28;20156;-74
2021/07/08 02:44:09;;;;;;;3.03;1.70;;;;;;;16.96;75.00;101617.19;5055805;28;20033;-74
2021/07/08 02:46:35;;;;;;;2.35;1.65;;;;;;;16.90;74.98;101613.78;5044101;28;20108;-74
2021/07/08 02:49:00;;;;;;;2.22;1.48;;;;;;;16.99;74.88;101622.38;5042078;28;20084;-74
2021/07/08 02:51:25;;;;;;;2.10;1.92;;;;;;;16.78;76.11;101613.25;5035543;28;20394;-74
2021/07/08 02:53:50;;;;;;;4.45;2.17;;;;;;;17.03;75.26;101618.75;5035898;28;20390;-74
2021/07/08 02:56:16;;;;;;;3.72;2.30;;;;;;;17.16;74.53;101613.97;5036067;28;20104;-75
2021/07/08 02:58:41;;;;;;;4.10;2.00;;;;;;;17.28;73.96;101613.59;5035005;28;20022;-75
2021/07/08 03:01:06;;;;;;;1.83;1.73;;;;;;;17.34;73.61;101607.28;5051382;28;20025;-74
2021/07/08 03:03:32;;;;;;;1.70;1.55;;;;;;;17.35;74.14;101604.59;5034617;28;20037;-75
2021/07/08 03:05:57;;;;;;;1.80;1.70;;;;;;;17.36;74.45;101600.19;5036190;28;20084;-75
2021/07/08 03:08:23;;;;;;;1.88;1.77;;;;;;;16.88;76.40;101598.91;5034568;28;20040;-73
2021/07/08 03:10:48;;;;;;;4.63;1.90;;;;;;;16.71;76.75;101608.16;5034765;28;20402;-72
2021/07/08 03:13:13;;;;;;;2.92;1.73;;;;;;;16.93;76.20;101607.56;5035257;28;20056;-72
2021/07/08 03:15:39;;;;;;;2.90;1.60;;;;;;;17.15;75.41;101613.13;5051320;28;20021;-74
2021/07/08 03:18:04;;;;;;;2.67;1.75;;;;;;;17.27;74.99;101622.44;5034577;28;20109;-74
2021/07/08 03:20:36;;;;;;;2.30;1.90;;;;;;;17.18;75.37;101617.44;5034436;28;20052;-73
2021/07/08 03:23:07;;;;;;;2.53;1.90;;;;;;;16.95;76.12;101613.69;5050485;28;20014;-73
2021/07/08 03:25:33;;;;;;;2.85;2.15;;;;;;;16.84;76.63;101613.09;5035506;28;20029;-73
2021/07/08 03:27:59;;;;;;;2.78;1.88;;;;;;;16.70;76.94;101611.69;5035446;28;20423;-73
2021/07/08 03:30:25;;;;;;;2.15;1.75;;;;;;;16.80;76.88;101622.00;5034130;28;20029;-73
2021/07/08 03:32:51;;;;;;;3.83;1.80;;;;;;;16.76;78.11;101623.00;5034996;28;20434;-72
2021/07/08 03:35:17;;;;;;;2.80;1.73;;;;;;;16.95;77.11;101626.88;5051113;28;20057;-73
2021/07/08 03:37:43;;;;;;;1.80;1.70;;;;;;;16.80;77.84;101622.84;5034351;28;20063;-72
2021/07/08 03:40:11;;;;;;;1.92;1.83;;;;;;;16.79;77.45;101626.41;5050973;28;20033;-73
2021/07/08 03:42:37;;;;;;;3.58;2.25;;;;;;;16.76;77.83;101625.63;5050394;28;20018;-73
2021/07/08 03:45:04;;;;;;;3.45;2.00;;;;;;;16.79;76.83;101626.41;5050686;28;20095;-73
2021/07/08 03:47:29;;;;;;;1.98;1.80;;;;;;;17.11;76.48;101624.69;5050674;28;20029;-73
2021/07/08 03:49:55;;;;;;;3.08;1.85;;;;;;;17.32;75.81;101624.94;5050650;28;20048;-74
2021/07/08 03:52:20;;;;;;;4.10;2.10;;;;;;;17.42;74.81;101628.19;5050169;28;20036;-73
2021/07/08 03:54:45;;;;;;;2.22;1.88;;;;;;;17.47;74.84;101634.19;5050623;28;20083;-74
2021/07/08 03:57:10;;;;;;;2.45;1.70;;;;;;;17.44;75.33;101642.19;5050676;28;20075;-74
2021/07/08 03:59:36;;;;;;;1.70;1.60;;;;;;;17.48;74.78;101646.47;5050604;28;20029;-73
2021/07/08 04:02:01;;;;;;;2.15;1.70;;;;;;;17.49;74.57;101641.16;5050389;28;20029;-74
2021/07/08 04:04:27;;;;;;;2.97;1.98;;;;;;;17.47;74.68;101640.34;5033930;28;20064;-73
2021/07/08 04:06:52;;;;;;;3.60;2.25;;;;;;;17.33;75.55;101646.03;5033756;28;20036;-73
2021/07/08 04:09:17;;;;;;;3.78;1.92;;;;;;;17.15;75.82;101646.56;5050577;28;20057;-73
2021/07/08 04:11:43;;;;;;;2.47;2.28;;;;;;;17.02;76.80;101653.97;5049592;28;20378;-74
2021/07/08 04:14:08;;;;;;;1.60;1.50;;;;;;;17.01;76.44;101658.34;5034664;28;20044;-73
2021/07/08 04:16:34;;;;;;;2.42;2.13;;;;;;;17.01;77.36;101658.34;5050134;28;20033;-73
2021/07/08 04:19:01;;;;;;;2.95;1.90;;;;;;;17.24;76.69;101659.50;5034632;28;20037;-74
2021/07/08 04:21:26;;;;;;;3.42;2.25;;;;;;;17.42;75.49;101662.50;5034098;28;20036;-74
2021/07/08 04:23:51;;;;;;;1.98;1.80;;;;;;;17.63;74.52;101675.09;5034730;28;20331;-74
2021/07/08 04:26:18;;;;;;;3.05;1.95;;;;;;;17.72;73.97;101672.16;5034430;28;20036;-74
2021/07/08 04:28:43;;;;;;;3.22;1.90;;;;;;;17.76;74.22;101666.78;5049783;28;20030;-73
2021/07/08 04:31:09;;;;;;;8.38;2.35;;;;;;;17.64;74.85;101674.19;5034323;28;20029;-73
2021/07/08 04:33:39;;;;;;;4.60;2.40;;;;;;;17.56;74.92;101676.16;5050206;28;20021;-73
2021/07/08 04:36:04;;;;;;;2.58;2.00;;;;;;;17.33;75.66;101680.34;5034339;28;20079;-73
2021/07/08 04:38:29;;;;;;;3.33;2.40;;;;;;;16.97;77.39;101683.09;5034604;28;20021;-73
2021/07/08 04:40:55;;;;;;;5.15;2.40;;;;;;;17.05;77.37;101689.03;5049055;28;20037;-75
2021/07/08 04:43:20;;;;;;;2.90;2.50;;;;;;;17.37;76.21;101700.47;5032656;28;20014;-74
2021/07/08 04:45:48;;;;;;;3.92;2.28;;;;;;;17.55;75.82;101690.28;5050031;28;20133;-74
2021/07/08 04:48:14;;;;;;;3.65;2.08;;;;;;;17.68;75.24;101689.03;5034376;28;20321;-74
2021/07/08 04:50:39;;;;;;;3.88;2.28;;;;;;;17.77;74.56;101690.50;5049727;28;20036;-74
2021/07/08 04:53:05;;;;;;;4.63;2.10;;;;;;;17.48;74.57;101694.88;5049599;28;20100;-74
2021/07/08 04:55:30;;;;;;;2.75;2.20;;;;;;;17.75;74.12;101694.97;5015982;28;20376;-74
2021/07/08 04:57:56;;;;;;;4.35;2.25;;;;;;;17.86;73.21;101699.91;5049635;28;20029;-74
2021/07/08 05:00:25;;;;;;;2.60;2.10;;;;;;;17.83;73.35;101687.69;5033178;28;20017;-74
2021/07/08 05:02:51;;;;;;;4.25;2.53;;;;;;;17.95;73.09;101688.25;5032655;28;20024;-74
2021/07/08 05:05:17;;;;;;;3.33;2.30;;;;;;;17.99;73.68;101682.81;5049685;28;20033;-74
2021/07/08 05:07:42;;;;;;;4.13;2.15;;;;;;;18.01;73.50;101682.75;5049622;28;20067;-73
2021/07/08 05:10:11;;;;;;;2.33;2.10;;;;;;;17.80;73.94;101689.56;5034235;28;20304;-74
2021/07/08 05:12:36;;;;;;;5.80;2.22;;;;;;;17.69;74.77;101693.38;5036804;28;20450;-74
2021/07/08 05:15:03;;;;;;;2.45;2.20;;;;;;;17.67;74.40;101695.22;5053573;28;20028;-73
2021/07/08 05:17:29;;;;;;;2.40;2.20;;;;;;;17.62;74.87;101694.47;5036848;28;20087;-73
2021/07/08 05:19:54;;;;;;;3.13;2.65;;;;;;;17.77;73.98;101705.50;5037946;28;20025;-73
2021/07/08 05:22:21;;;;;;;4.78;2.38;;;;;;;17.76;74.48;101703.78;5052902;28;20472;-73
2021/07/08 05:24:48;;;;;;;3.33;2.22;;;;;;;17.70;74.80;101696.91;5053209;28;20025;-73
2021/07/08 05:27:16;;;;;;;5.20;2.60;;;;;;;17.79;74.65;101691.31;5035124;28;20025;-73
2021/07/08 05:29:43;;;;;;;2.03;1.90;;;;;;;17.80;74.15;101689.56;5051619;28;20326;-73
2021/07/08 05:32:09;;;;;;;3.72;2.53;;;;;;;18.03;73.48;101692.38;5037093;28;20021;-73
2021/07/08 05:34:34;;;;;;;2.65;2.40;;;;;;;17.94;73.58;101686.50;5053212;28;20021;-73
2021/07/08 05:36:59;;;;;;;5.18;2.25;;;;;;;18.16;73.54;101681.38;5053139;28;20035;-73
2021/07/08 05:39:25;;;;;;;2.55;2.15;;;;;;;18.18;73.96;101674.28;5037250;28;20043;-73
2021/07/08 05:41:50;;;;;;;9.30;2.45;;;;;;;18.36;72.26;101678.97;5033050;28;20021;-74
2021/07/08 05:44:15;;;;;;;2.95;2.20;;;;;;;18.61;71.71;101678.16;5037513;28;20378;-73
2021/07/08 05:46:41;;;;;;;3.85;2.03;;;;;;;18.74;70.65;101679.44;5052696;28;20104;-78
2021/07/08 05:49:06;;;;;;;5.15;2.33;;;;;;;18.85;70.79;101687.00;5047758;28;20446;-72
2021/07/08 05:51:31;;;;;;;2.95;2.20;;;;;;;18.90;70.45;101685.09;5033223;28;20033;-72
2021/07/08 05:53:59;;;;;;;3.85;2.05;;;;;;;18.51;72.07;101687.31;5035182;28;20022;-72
2021/07/08 05:56:27;;;;;;;3.15;2.75;;;;;;;18.31;73.27;101686.19;5051156;28;20036;-72
2021/07/08 05:58:53;;;;;;;3.80;2.20;;;;;;;18.36;73.26;101673.66;5019935;28;20492;-72
2021/07/08 06:01:20;;;;;;;3.28;2.00;;;;;;;18.17;74.67;101677.84;5031315;28;20038;-71
2021/07/08 06:03:45;;;;;;;4.10;2.28;;;;;;;18.26;74.65;101672.25;5042532;28;20029;-71
2021/07/08 06:06:10;;;;;;;3.13;1.88;;;;;;;18.70;73.09;101679.59;5036692;28;20037;-68
2021/07/08 06:08:36;;;;;;;4.13;2.42;;;;;;;19.00;70.68;101679.47;5036961;28;20029;-73
2021/07/08 06:11:01;;;;;;;3.83;2.50;;;;;;;19.20;69.48;101689.34;5051755;28;20034;-73
2021/07/08 06:13:26;;;;;;;3.58;1.90;;;;;;;19.11;70.41;101687.03;5032076;28;20044;-72
2021/07/08 06:15:52;;;;;;;4.70;2.83;;;;;;;19.64;68.32;101692.09;5023777;28;20435;-74
2021/07/08 06:18:17;;;;;;;2.80;2.53;;;;;;;19.82;67.19;101695.84;5030379;28;20025;-75
2021/07/08 06:20:42;;;;;;;6.10;2.42;;;;;;;20.24;67.02;101707.47;5051229;28;20028;-74
2021/07/08 06:23:08;;;;;;;4.40;2.67;;;;;;;20.39;66.21;101713.91;5034826;28;20027;-74
2021/07/08 06:25:33;;;;;;;2.88;2.63;;;;;;;20.39;65.93;101717.44;5045792;28;20122;-75
2021/07/08 06:27:58;;;;;;;3.58;2.80;;;;;;;20.36;66.51;101719.38;5032008;28;20092;-74
2021/07/08 06:30:24;;;;;;;7.55;2.70;;;;;;;20.30;66.87;101717.84;5015757;28;20075;-74
2021/07/08 06:32:49;;;;;;;3.67;2.60;;;;;;;20.18;67.57;101728.91;5030866;28;20026;-73
2021/07/08 06:35:18;;;;;;;3.28;2.83;;;;;;;19.91;68.60;101729.09;5032419;28;20037;-74
2021/07/08 06:37:47;;;;;;;3.33;2.63;;;;;;;20.06;68.54;101725.84;5033893;28;20029;-71
2021/07/08 06:40:15;;;;;;;2.83;2.60;;;;;;;20.00;69.00;101727.88;5017559;28;20125;-73
2021/07/08 06:42:40;;;;;;;4.10;2.95;;;;;;;19.74;69.86;101730.59;5015492;28;20017;-71
2021/07/08 06:45:10;;;;;;;6.10;2.80;;;;;;;19.87;69.92;101732.78;5017537;28;20022;-72
2021/07/08 06:47:42;;;;;;;2.90;2.70;;;;;;;19.68;70.24;101736.09;5034258;28;20029;-76
2021/07/08 06:50:08;;;;;;;5.28;3.20;;;;;;;19.94;69.45;101739.56;5016024;28;20422;-76
2021/07/08 06:52:33;;;;;;;6.50;3.15;;;;;;;20.06;68.92;101747.06;5049548;28;20032;-73
2021/07/08 06:54:58;;;;;;;5.35;2.80;;;;;;;20.10;68.62;101739.84;5017119;28;20045;-71
2021/07/08 06:57:24;;;;;;;5.65;3.80;;;;;;;20.22;68.29;101741.13;5032036;28;20033;-69
2021/07/08 06:59:49;;;;;;;2.80;2.60;;;;;;;20.26;68.42;101738.31;5030793;28;20051;-70
2021/07/08 07:02:14;;;;;;;3.75;2.67;;;;;;;19.70;70.33;101734.28;5037354;28;20327;-75
2021/07/08 07:04:39;;;;;;;3.22;2.90;;;;;;;19.31;71.57;101732.19;5034978;28;20435;-74
2021/07/08 07:07:05;;;;;;;3.88;3.25;;;;;;;19.69;70.58;101732.53;5032670;28;20034;-74
2021/07/08 07:09:31;;;;;;;5.22;3.35;;;;;;;20.36;68.69;101732.63;5032609;28;20033;-72
2021/07/08 07:11:56;;;;;;;6.72;3.30;;;;;;;20.71;66.82;101732.97;5015424;28;20395;-72
2021/07/08 07:14:21;;;;;;;6.32;4.05;;;;;;;20.09;68.65;101746.91;5031488;28;20406;-73
2021/07/08 07:16:47;;;;;;;4.25;3.13;;;;;;;20.57;67.86;101736.16;5032486;28;20105;-74
2021/07/08 07:19:12;;;;;;;3.40;3.15;;;;;;;20.77;66.92;101733.56;5035331;28;20374;-74
2021/07/08 07:21:37;;;;;;;3.38;3.08;;;;;;;21.12;65.52;101738.28;5034322;28;20029;-74
2021/07/08 07:24:03;;;;;;;3.88;3.30;;;;;;;21.57;63.36;101739.84;5017651;28;20021;-74
2021/07/08 07:26:29;;;;;;;4.63;3.60;;;;;;;21.94;61.72;101731.94;5033497;28;20378;-75
2021/07/08 07:28:54;;;;;;;5.63;3.17;;;;;;;21.91;61.90;101737.38;5018153;28;20021;-73
2021/07/08 07:31:19;;;;;;;3.75;2.95;;;;;;;22.06;61.89;101741.97;5017130;28;20114;-75
2021/07/08 07:33:45;;;;;;;5.07;3.33;;;;;;;21.99;61.21;101745.00;5050516;28;20273;-75
2021/07/08 07:36:11;;;;;;;4.18;2.65;;;;;;;21.84;60.18;101747.47;5051054;28;20423;-73
2021/07/08 07:38:40;;;;;;;4.93;3.10;;;;;;;21.71;61.64;101751.63;5035098;28;20031;-73
2021/07/08 07:41:06;;;;;;;7.22;2.90;;;;;;;21.69;61.89;101743.72;5049100;28;20389;-73
2021/07/08 07:43:32;;;;;;;4.00;3.08;;;;;;;21.50;62.25;101740.16;5032869;28;20021;-73
2021/07/08 07:45:57;;;;;;;3.95;2.88;;;;;;;21.93;61.33;101748.81;5047612;28;20038;-74
2021/07/08 07:48:23;;;;;;;2.83;2.47;;;;;;;22.44;60.51;101744.59;5033387;28;20025;-74
2021/07/08 07:50:48;;;;;;;5.95;2.97;;;;;;;21.93;60.41;101747.00;5031948;28;20034;-80
2021/07/08 07:53:13;;;;;;;6.32;2.75;;;;;;;22.49;59.74;101732.88;5017561;28;20423;-78
2021/07/08 07:55:39;;;;;;;4.45;2.80;;;;;;;22.83;57.88;101741.81;5036727;28;20025;-79
2021/07/08 07:58:05;;;;;;;6.07;2.67;;;;;;;23.09;57.51;101741.28;5040183;28;20376;-79
2021/07/08 08:00:31;;;;;;;7.55;2.88;;;;;;;23.00;57.43;101744.47;5019546;28;20034;-78
2021/07/08 08:02:56;;;;;;;5.40;2.60;;;;;;;22.63;58.93;101741.00;5055879;28;20056;-79
2021/07/08 08:05:33;;;;;;;2.60;2.40;;;;;;;22.62;58.71;101741.97;5057740;28;20053;-79
2021/07/08 08:10:44;;;;;;;10.27;3.30;;;;;;;23.21;55.39;101738.97;5025290;28;20339;-78
2021/07/08 08:13:11;;;;;;;4.20;2.70;;;;;;;22.94;57.72;101742.09;5022505;28;20030;-78
2021/07/08 08:15:36;;;;;;;4.90;2.53;;;;;;;23.26;56.49;101745.78;5035500;28;20040;-78
2021/07/08 08:18:02;;;;;;;3.55;3.00;;;;;;;23.62;56.75;101747.38;5019402;28;20026;-78
2021/07/08 08:20:29;;;;;;;5.13;2.63;;;;;;;23.79;56.42;101753.59;5019387;28;20036;-78
2021/07/08 08:22:55;;;;;;;3.75;2.22;;;;;;;24.79;53.40;101741.72;5052421;28;20026;-79
2021/07/08 08:25:20;;;;;;;4.00;2.70;;;;;;;25.36;50.68;101740.97;5036985;28;20048;-79
2021/07/08 08:27:46;;;;;;;6.20;2.38;;;;;;;26.22;49.19;101752.47;5050766;28;20032;-78
2021/07/08 08:30:12;;;;;;;4.25;2.60;;;;;;;26.40;48.27;101750.41;5050146;28;20054;-77
2021/07/08 08:32:38;;;;;;;5.03;2.88;;;;;;;25.69;51.01;101760.31;5017628;28;20025;-78
2021/07/08 08:35:04;;;;;;;5.30;3.00;;;;;;;24.64;52.27;101754.19;5001019;28;20030;-79
2021/07/08 08:37:29;;;;;;;5.47;3.15;;;;;;;23.11;56.21;101747.41;5001123;28;20030;-78
2021/07/08 08:39:54;;;;;;;2.50;2.30;;;;;;;24.12;54.68;101750.03;5036856;28;20033;-78
2021/07/08 08:42:20;;;;;;;7.28;2.85;;;;;;;24.71;52.58;101752.00;5037415;28;20028;-78
2021/07/08 08:44:45;;;;;;;3.28;2.90;;;;;;;24.92;50.71;101757.88;5022208;28;20029;-78
2021/07/08 08:47:11;;;;;;;5.13;2.53;;;;;;;23.97;55.09;101762.44;5040442;28;20029;-79
2021/07/08 08:49:41;;;;;;;6.65;3.13;;;;;;;23.65;56.08;101757.03;5025124;28;20024;-78
2021/07/08 08:52:07;;;;;;;3.65;3.05;;;;;;;23.13;58.68;101758.03;5024168;28;20179;-79
2021/07/08 08:54:33;;;;;;;4.60;2.78;;;;;;;23.16;56.76;101746.34;5024714;28;20028;-78
2021/07/08 08:56:58;;;;;;;6.90;2.63;;;;;;;23.81;52.40;101754.38;5045055;28;20021;-79
2021/07/08 08:59:24;;;;;;;4.10;2.00;;;;;;;23.88;53.83;101757.56;5048339;28;20028;-79
2021/07/08 09:02:12;;;;;;;6.65;2.10;;;;;;;23.84;53.31;101754.19;5021459;28;20481;-78
2021/07/08 09:04:37;;;;;;;5.57;1.70;;;;;;;23.66;54.74;101750.75;5054454;28;20057;-77
2021/07/08 09:07:26;;;;;;;4.10;2.50;;;;;;;24.19;51.84;101761.22;5039076;28;20052;-78
2021/07/08 09:09:56;;;;;;;3.67;2.10;;;;;;;23.32;51.71;101752.56;5036991;28;20014;-77
2021/07/08 09:12:24;;;;;;;4.82;1.88;;;;;;;23.59;52.09;101754.69;5037845;28;20100;-77
2021/07/08 09:14:51;;;;;;;4.35;1.85;;;;;;;23.87;50.54;101755.84;5037679;28;20040;-78
2021/07/08 09:17:21;;;;;;;2.35;1.48;;;;;;;24.16;49.30;101756.03;5047303;28;20075;-78
2021/07/08 09:19:47;;;;;;;3.50;1.42;;;;;;;24.18;49.22;101760.34;5057739;28;20473;-77
2021/07/08 09:22:26;;;;;;;7.35;1.70;;;;;;;24.51;49.14;101766.50;5006211;28;20029;-78
2021/07/08 09:24:51;;;;;;;1.40;1.30;;;;;;;24.58;47.95;101760.72;5054391;28;20025;-78
2021/07/08 09:27:16;;;;;;;3.20;1.50;;;;;;;24.87;45.40;101752.81;5017837;28;20037;-78
2021/07/08 09:29:45;;;;;;;2.85;1.60;;;;;;;25.02;43.01;101755.50;5028363;28;20112;-73
2021/07/08 09:32:19;;;;;;;1.83;1.50;;;;;;;24.96;45.12;101746.03;5034793;28;20028;-74
2021/07/08 09:34:50;;;;;;;3.58;1.70;;;;;;;23.50;51.00;101752.53;5030840;28;20021;-74
2021/07/08 09:37:29;;;;;;;3.33;1.35;;;;;;;24.36;48.49;101753.06;5051971;28;20033;-74
2021/07/08 09:39:59;;;;;;;3.85;1.30;;;;;;;24.41;48.86;101766.19;5035117;28;20045;-75
2021/07/08 09:42:35;;;;;;;3.40;1.67;;;;;;;24.48;49.35;101767.53;5035039;28;20018;-76
2021/07/08 09:45:08;;;;;;;2.80;1.33;;;;;;;24.60;46.62;101774.81;5032503;28;20033;-75
2021/07/08 09:47:34;;;;;;;1.77;1.38;;;;;;;23.57;49.64;101764.56;5061884;28;20125;-74
2021/07/08 09:50:00;;;;;;;1.80;1.30;;;;;;;23.74;50.42;101761.00;5035108;28;20025;-75
2021/07/08 09:52:25;;;;;;;4.13;1.60;;;;;;;23.95;49.44;101761.63;5019666;28;20013;-77
2021/07/08 09:57:45;;;;;;;3.22;1.60;;;;;;;23.71;50.36;101766.47;5033740;28;20403;-73
2021/07/08 10:00:22;;;;;;;3.28;1.40;;;;;;;23.49;51.02;101769.47;5050681;28;20411;-77
2021/07/08 10:02:49;;;;;;;2.58;1.60;;;;;;;23.60;50.22;101775.06;5037890;28;20033;-78
2021/07/08 10:05:22;;;;;;;3.33;1.50;;;;;;;23.54;50.50;101780.75;5017870;28;20030;-74
2021/07/08 10:07:47;;;;;;;2.17;1.42;;;;;;;23.41;51.31;101776.06;5035271;28;20026;-75
2021/07/08 10:10:14;;;;;;;1.88;1.42;;;;;;;23.11;52.38;101768.72;5017028;28;20033;-75
2021/07/08 10:12:41;;;;;;;4.78;1.80;;;;;;;23.43;50.98;101763.50;5017790;28;20017;-75
2021/07/08 10:15:16;;;;;;;3.40;1.40;;;;;;;23.60;51.34;101769.75;5053772;28;20024;-78
2021/07/08 10:17:42;;;;;;;2.53;1.50;;;;;;;23.70;50.72;101770.97;5019936;28;20635;-75
2021/07/08 10:20:10;;;;;;;2.90;1.58;;;;;;;23.72;49.65;101769.06;5043349;28;20053;-76
2021/07/08 10:25:41;;;;;;;2.00;1.52;;;;;;;23.33;51.83;101764.09;5150572;23;1034805;-91
2021/07/08 10:28:07;;;;;;;6.85;1.80;;;;;;;23.81;51.16;101767.72;5080191;28;20028;-92
2021/07/08 10:30:33;;;;;;;2.92;1.60;;;;;;;23.48;51.89;101762.41;5065497;28;20384;-87
2021/07/08 10:32:58;;;;;;;2.00;1.38;;;;;;;23.98;48.98;101764.13;5063756;28;20052;-78
2021/07/08 10:35:44;;;;;;;2.72;1.25;;;;;;;24.28;47.63;101766.00;5057532;28;20028;-76
2021/07/08 10:38:27;;;;;;;2.03;1.38;;;;;;;23.84;49.86;101766.69;5063203;28;20031;-77
2021/07/08 10:40:57;;;;;;;3.75;1.70;;;;;;;24.26;49.63;101762.56;5076835;28;20107;-80
2021/07/08 10:43:42;;;;;;;5.32;1.63;;;;;;;24.72;50.74;101759.03;5075291;28;20444;-78
2021/07/08 10:46:10;;;;;;;4.38;2.28;;;;;;;25.04;49.52;101759.78;5055664;28;20079;-77
2021/07/08 10:48:47;;;;;;;3.00;1.90;;;;;;;25.35;48.97;101757.94;5057338;28;20376;-77
2021/07/08 10:51:36;;;;;;;3.63;1.77;;;;;;;25.30;48.63;101755.53;5058175;28;20032;-79
2021/07/08 10:54:25;;;;;;;4.15;1.60;;;;;;;25.56;47.94;101749.53;5081068;28;20040;-80
2021/07/08 10:56:51;;;;;;;4.70;2.10;;;;;;;25.75;46.73;101755.41;5073319;28;20028;-83
2021/07/08 10:59:17;;;;;;;2.50;2.05;;;;;;;25.74;46.43;101753.72;5046483;28;20298;-82
2021/07/08 11:01:43;;;;;;;1.98;1.48;;;;;;;24.67;48.63;101756.66;5036086;28;20049;-79
2021/07/08 11:04:10;;;;;;;3.13;1.55;;;;;;;24.80;48.65;101752.31;5023053;28;20016;-87
2021/07/08 11:06:43;;;;;;;8.40;2.15;;;;;;;24.16;48.37;101758.69;5024771;28;20091;-81
2021/07/08 11:09:13;;;;;;;1.33;1.20;;;;;;;24.88;48.56;101753.66;5059918;28;20092;-78
2021/07/08 11:11:38;;;;;;;2.95;1.52;;;;;;;25.87;45.69;101748.44;5076244;28;20417;-79
2021/07/08 11:14:06;;;;;;;3.43;1.50;;;;;;;26.04;46.01;101733.13;5060000;28;20082;-80
2021/07/08 11:16:44;;;;;;;2.03;1.40;;;;;;;25.90;46.64;101736.69;5060226;28;20343;-80
2021/07/08 11:19:12;;;;;;;3.65;2.03;;;;;;;26.04;45.82;101728.66;5059906;28;20025;-79
2021/07/08 11:21:56;;;;;;;3.17;1.83;;;;;;;25.29;50.63;101720.84;5058047;28;20329;-74
2021/07/08 11:24:26;;;;;;;4.00;1.92;;;;;;;26.49;46.03;101720.31;5070864;28;20420;-74
2021/07/08 11:27:03;;;;;;;4.45;1.67;;;;;;;27.43;42.64;101721.03;5057620;28;20043;-76
2021/07/08 11:29:37;;;;;;;2.40;1.40;;;;;;;27.08;43.22;101714.50;5054297;28;20055;-74
2021/07/08 11:32:39;;;;;;;2.70;1.83;;;;;;;27.16;43.72;101722.88;5055112;28;20028;-74